Time;durP1;ratioP1;P1;durP2;ratioP2;P2;SDS_P1;SDS_P2;PMS_P1;PMS_P2;Temp;Humidity;BMP_temperature;BMP_pressure;BME280_temperature;BME280_humidity;BME280_pressure;Samples;Min_cycle;Max_cycle;Signal;HPM_P1;HPM_P2
2021/04/23 00:00:41;;;;;;;21.88;7.28;;;1.90;84.80;;;;;;5068231;28;20402;-80
2021/04/23 00:03:32;;;;;;;18.45;7.57;;;1.90;85.20;;;;;;5095929;28;20033;-80
2021/04/23 00:06:10;;;;;;;24.37;7.57;;;1.90;85.30;;;;;;5073539;28;20043;-79
2021/04/23 00:08:37;;;;;;;19.40;7.35;;;1.80;85.40;;;;;;5082248;28;20043;-79
2021/04/23 00:11:06;;;;;;;19.63;7.53;;;1.80;85.40;;;;;;5084204;28;20442;-79
2021/04/23 00:13:33;;;;;;;23.55;7.20;;;1.80;85.60;;;;;;5098222;28;20071;-79
2021/04/23 00:15:59;;;;;;;22.25;7.57;;;1.80;85.70;;;;;;5081792;28;20036;-80
2021/04/23 00:18:25;;;;;;;27.33;8.00;;;1.70;85.70;;;;;;5079530;28;20050;-81
2021/04/23 00:20:52;;;;;;;26.67;7.65;;;1.70;85.90;;;;;;5069754;28;20251;-79
2021/04/23 00:23:18;;;;;;;23.13;6.95;;;1.60;86.10;;;;;;5070929;28;21846;-80
2021/04/23 00:25:45;;;;;;;20.02;7.13;;;1.60;86.40;;;;;;5074048;28;20032;-80
2021/04/23 00:28:13;;;;;;;23.05;7.85;;;1.60;86.40;;;;;;5073225;28;20059;-79
2021/04/23 00:30:47;;;;;;;24.67;7.88;;;1.60;86.50;;;;;;5071714;28;20093;-80
2021/04/23 00:33:14;;;;;;;21.77;7.38;;;1.60;86.70;;;;;;5078833;28;20042;-80
2021/04/23 00:35:43;;;;;;;23.17;7.68;;;1.60;86.80;;;;;;5076488;28;20476;-80
2021/04/23 00:38:14;;;;;;;21.88;8.02;;;1.60;86.90;;;;;;5072866;28;20032;-80
2021/04/23 00:41:00;;;;;;;19.98;7.30;;;1.60;86.70;;;;;;5072582;28;20484;-80
2021/04/23 00:43:30;;;;;;;22.88;7.80;;;1.50;86.90;;;;;;5067221;28;20028;-81
2021/04/23 00:45:56;;;;;;;22.55;7.43;;;1.50;86.70;;;;;;5071796;28;20446;-80
2021/04/23 00:48:23;;;;;;;19.85;6.93;;;1.40;86.80;;;;;;5047990;28;20040;-80
2021/04/23 00:50:55;;;;;;;21.63;7.55;;;1.40;86.90;;;;;;5075168;28;20062;-80
2021/04/23 00:53:28;;;;;;;22.50;7.53;;;1.40;87.10;;;;;;5096078;27;20039;-81
2021/04/23 00:55:55;;;;;;;;;;;1.40;87.10;;;;;;5093549;28;20040;-80
2021/04/23 00:58:24;;;;;;;22.30;7.22;;;1.40;87.20;;;;;;5077782;28;19928;-80
2021/04/23 01:00:52;;;;;;;21.92;8.20;;;1.30;86.70;;;;;;5087219;28;20032;-81
2021/04/23 01:03:21;;;;;;;22.23;7.53;;;1.30;86.60;;;;;;5071002;28;20046;-80
2021/04/23 01:05:49;;;;;;;26.20;7.90;;;1.20;86.80;;;;;;5068787;28;20032;-80
2021/04/23 01:08:15;;;;;;;20.60;7.53;;;1.20;87.00;;;;;;5068614;28;20456;-79
2021/04/23 01:10:42;;;;;;;24.50;7.80;;;1.20;87.20;;;;;;5066327;28;20593;-80
2021/04/23 01:13:08;;;;;;;22.00;8.15;;;1.20;87.50;;;;;;5068450;28;20588;-80
2021/04/23 01:15:34;;;;;;;23.70;7.88;;;1.20;87.80;;;;;;5069678;28;20511;-80
2021/04/23 01:18:01;;;;;;;21.33;7.93;;;1.20;88.70;;;;;;5051439;28;20398;-81
2021/04/23 01:20:27;;;;;;;21.33;8.20;;;1.10;88.10;;;;;;5078779;28;20036;-81
2021/04/23 01:22:53;;;;;;;19.25;7.10;;;1.10;88.10;;;;;;5078535;28;20044;-80
2021/04/23 01:25:20;;;;;;;24.27;8.10;;;1.10;88.20;;;;;;5080011;28;20039;-80
2021/04/23 01:27:47;;;;;;;18.75;7.28;;;1.10;88.50;;;;;;5061749;28;20063;-80
2021/04/23 01:30:17;;;;;;;33.50;8.75;;;1.10;89.50;;;;;;5080740;28;20057;-80
2021/04/23 01:32:43;;;;;;;24.35;7.53;;;1.10;88.90;;;;;;5097117;28;20028;-80
2021/04/23 01:35:17;;;;;;;29.80;8.45;;;1.10;89.30;;;;;;5081019;28;20253;-79
2021/04/23 01:37:44;;;;;;;30.90;8.57;;;1.10;89.30;;;;;;5078885;28;20047;-79
2021/04/23 01:40:12;;;;;;;22.23;8.05;;;1.20;89.40;;;;;;5068821;28;20514;-81
2021/04/23 01:42:38;;;;;;;21.25;7.53;;;1.20;89.50;;;;;;5072929;28;20056;-81
2021/04/23 01:45:10;;;;;;;23.95;8.13;;;1.20;90.00;;;;;;5092649;28;20032;-81
2021/04/23 01:47:36;;;;;;;19.75;6.78;;;1.10;89.40;;;;;;5081096;28;20301;-80
2021/04/23 01:50:05;;;;;;;22.95;7.35;;;1.10;89.50;;;;;;5076331;28;20474;-80
2021/04/23 01:52:31;;;;;;;21.33;7.45;;;1.20;89.70;;;;;;5070318;28;20115;-81
2021/04/23 01:54:57;;;;;;;24.90;7.40;;;1.20;89.80;;;;;;5070290;28;20387;-80
2021/04/23 01:57:23;;;;;;;19.77;6.57;;;1.20;89.80;;;;;;5060461;28;20346;-80
2021/04/23 01:59:50;;;;;;;24.02;6.80;;;1.20;89.80;;;;;;5072319;28;20056;-80
2021/04/23 02:02:18;;;;;;;23.15;6.97;;;1.10;89.50;;;;;;5081634;28;20505;-80
2021/04/23 02:04:46;;;;;;;22.25;7.43;;;1.10;89.50;;;;;;5083404;28;20030;-80
2021/04/23 02:07:14;;;;;;;25.17;8.25;;;1.10;89.60;;;;;;5082687;28;20466;-80
2021/04/23 02:09:40;;;;;;;23.52;7.38;;;1.10;89.70;;;;;;5085662;28;20044;-80
2021/04/23 02:12:07;;;;;;;22.15;6.45;;;1.10;89.70;;;;;;5082226;28;20069;-80
2021/04/23 02:14:33;;;;;;;25.48;7.75;;;1.00;90.00;;;;;;5087511;22;20040;-80
2021/04/23 02:16:59;;;;;;;26.77;6.47;;;1.10;90.00;;;;;;5046120;28;20045;-80
2021/04/23 02:19:25;;;;;;;17.00;6.38;;;1.00;90.00;;;;;;5033418;28;20040;-80
2021/04/23 02:21:51;;;;;;;24.27;7.72;;;1.00;90.00;;;;;;5020284;28;20077;-81
2021/04/23 02:24:18;;;;;;;27.45;7.00;;;1.00;90.00;;;;;;5042996;28;20051;-80
2021/04/23 02:26:44;;;;;;;20.48;6.70;;;1.00;90.00;;;;;;5044131;28;20086;-80
2021/04/23 02:29:16;;;;;;;24.45;7.32;;;1.00;90.10;;;;;;5032285;28;20048;-80
2021/04/23 02:31:47;;;;;;;26.27;7.15;;;1.00;90.10;;;;;;5046848;28;20421;-80
2021/04/23 02:34:14;;;;;;;18.90;6.35;;;1.00;90.10;;;;;;5062351;28;20032;-80
2021/04/23 02:36:41;;;;;;;26.20;7.05;;;1.00;90.10;;;;;;5048272;28;20035;-80
2021/04/23 02:39:13;;;;;;;21.58;6.72;;;1.00;90.10;;;;;;5039598;28;20040;-80
2021/04/23 02:41:41;;;;;;;19.80;7.03;;;1.00;90.50;;;;;;5029819;28;20063;-81
2021/04/23 02:44:07;;;;;;;25.30;7.38;;;1.10;90.20;;;;;;5036055;28;20308;-80
2021/04/23 02:46:35;;;;;;;21.35;6.40;;;1.00;90.30;;;;;;5031269;28;20975;-80
2021/04/23 02:49:00;;;;;;;25.90;7.25;;;0.90;90.40;;;;;;5042174;28;20032;-80
2021/04/23 02:51:30;;;;;;;24.73;6.88;;;0.90;90.40;;;;;;5033016;28;20032;-80
2021/04/23 02:53:57;;;;;;;23.25;6.97;;;1.00;90.40;;;;;;5056341;28;20036;-80
2021/04/23 02:56:25;;;;;;;28.20;6.38;;;0.90;90.50;;;;;;5024729;28;20052;-80
2021/04/23 02:58:52;;;;;;;31.98;6.85;;;0.90;90.40;;;;;;5047583;28;20028;-86
2021/04/23 03:01:22;;;;;;;24.88;7.53;;;0.80;90.50;;;;;;5043279;28;20052;-84
2021/04/23 03:03:48;;;;;;;23.75;6.93;;;0.80;90.50;;;;;;5061852;28;20040;-85
2021/04/23 03:06:14;;;;;;;29.85;6.25;;;0.80;90.50;;;;;;5036589;28;20481;-85
2021/04/23 03:08:40;;;;;;;22.15;6.50;;;0.80;90.60;;;;;;5059678;28;20082;-84
2021/04/23 03:11:11;;;;;;;24.35;6.22;;;0.80;90.60;;;;;;5052436;28;20115;-85
2021/04/23 03:13:39;;;;;;;26.35;7.07;;;0.70;90.70;;;;;;5072370;28;20039;-82
2021/04/23 03:16:07;;;;;;;16.73;6.43;;;0.80;90.70;;;;;;5055056;28;20040;-82
2021/04/23 03:18:35;;;;;;;23.92;7.18;;;0.70;90.70;;;;;;5073548;28;20050;-83
2021/04/23 03:21:05;;;;;;;23.35;6.47;;;0.70;90.70;;;;;;5057190;28;20037;-86
2021/04/23 03:23:31;;;;;;;16.85;6.43;;;0.70;90.70;;;;;;5037106;28;20036;-82
2021/04/23 03:26:03;;;;;;;18.95;6.88;;;0.70;90.70;;;;;;5057299;28;20993;-82
2021/04/23 03:28:29;;;;;;;21.17;6.00;;;0.80;90.80;;;;;;5052343;28;20037;-85
2021/04/23 03:30:55;;;;;;;23.33;5.78;;;0.70;90.70;;;;;;5047421;28;20793;-84
2021/04/23 03:33:21;;;;;;;25.98;6.93;;;0.70;90.80;;;;;;5031206;28;20449;-84
2021/04/23 03:35:50;;;;;;;22.92;6.20;;;0.70;90.80;;;;;;5056743;28;20138;-83
2021/04/23 03:38:17;;;;;;;26.23;7.28;;;0.70;90.90;;;;;;5065407;28;20033;-82
2021/04/23 03:40:44;;;;;;;31.02;7.15;;;0.70;90.90;;;;;;5048528;28;20111;-82
2021/04/23 03:43:10;;;;;;;29.40;7.70;;;0.70;90.90;;;;;;5075557;28;20051;-83
2021/04/23 03:45:37;;;;;;;28.60;7.40;;;0.70;91.00;;;;;;5055501;28;20111;-83
2021/04/23 03:48:04;;;;;;;23.50;6.20;;;0.70;91.00;;;;;;5044031;28;20048;-82
2021/04/23 03:50:32;;;;;;;22.80;7.72;;;0.70;91.00;;;;;;5022720;28;20032;-82
2021/04/23 03:53:00;;;;;;;19.48;6.22;;;0.70;91.10;;;;;;5005251;28;20405;-85
2021/04/23 03:55:33;;;;;;;24.25;6.30;;;0.60;91.00;;;;;;5043396;28;20040;-85
2021/04/23 03:58:00;;;;;;;18.98;5.80;;;0.60;91.10;;;;;;5039936;28;20503;-84
2021/04/23 04:00:35;;;;;;;26.90;6.97;;;0.60;91.10;;;;;;5043247;28;20052;-84
2021/04/23 04:03:01;;;;;;;22.83;6.05;;;0.60;91.10;;;;;;5049130;28;20033;-84
2021/04/23 04:05:27;;;;;;;19.35;6.28;;;0.60;91.20;;;;;;5049897;28;20035;-84
2021/04/23 04:07:53;;;;;;;22.55;6.05;;;0.60;91.20;;;;;;5051799;28;20036;-85
2021/04/23 04:10:19;;;;;;;26.50;6.30;;;0.60;91.20;;;;;;5044903;28;20303;-82
2021/04/23 04:12:48;;;;;;;21.35;6.53;;;0.60;91.20;;;;;;5043436;28;20044;-84
2021/04/23 04:15:15;;;;;;;27.60;6.20;;;0.60;91.20;;;;;;5043229;28;20032;-84
2021/04/23 04:17:41;;;;;;;21.75;6.30;;;0.60;91.20;;;;;;5051873;28;20040;-84
2021/04/23 04:20:10;;;;;;;28.10;6.50;;;0.60;91.30;;;;;;5051052;28;20037;-84
2021/04/23 04:22:36;;;;;;;26.80;6.18;;;0.60;91.30;;;;;;5053626;28;20094;-85
2021/04/23 04:25:02;;;;;;;29.05;6.53;;;0.60;91.30;;;;;;5039546;28;20409;-82
2021/04/23 04:27:28;;;;;;;21.77;6.03;;;0.60;91.30;;;;;;5039080;28;20044;-84
2021/04/23 04:29:54;;;;;;;23.92;6.45;;;0.60;91.40;;;;;;5021790;28;20512;-84
2021/04/23 04:32:20;;;;;;;18.95;6.25;;;0.70;91.50;;;;;;5024998;28;20449;-84
2021/04/23 04:34:46;;;;;;;22.70;6.18;;;0.70;91.40;;;;;;5039719;28;20086;-82
2021/04/23 04:37:12;;;;;;;19.33;6.05;;;0.70;91.30;;;;;;5049021;28;20101;-83
2021/04/23 04:39:38;;;;;;;24.23;6.28;;;0.70;91.40;;;;;;5052314;28;20565;-83
2021/04/23 04:42:05;;;;;;;13.43;5.70;;;0.70;91.40;;;;;;5034857;28;20036;-84
2021/04/23 04:44:31;;;;;;;27.90;6.57;;;0.70;91.40;;;;;;5056962;28;20033;-85
2021/04/23 04:46:57;;;;;;;20.60;6.30;;;0.70;91.40;;;;;;5066975;28;20521;-85
2021/04/23 04:49:23;;;;;;;26.02;6.65;;;0.70;91.30;;;;;;5028902;28;20044;-83
2021/04/23 04:51:49;;;;;;;38.95;6.82;;;0.70;91.30;;;;;;5037173;28;20305;-86
2021/04/23 04:54:15;;;;;;;21.25;5.78;;;0.70;91.40;;;;;;5019466;28;20678;-82
2021/04/23 04:56:41;;;;;;;26.67;6.57;;;0.70;91.40;;;;;;5013842;28;20024;-82
2021/04/23 04:59:07;;;;;;;21.55;6.45;;;0.80;91.50;;;;;;5050821;28;20131;-82
2021/04/23 05:01:32;;;;;;;25.85;6.53;;;0.80;91.50;;;;;;5056236;28;20126;-84
2021/04/23 05:03:58;;;;;;;22.85;5.55;;;0.80;91.50;;;;;;5027129;28;20045;-85
2021/04/23 05:06:27;;;;;;;21.08;6.72;;;0.90;91.50;;;;;;5033743;28;20037;-85
2021/04/23 05:08:53;;;;;;;16.67;5.40;;;0.90;91.60;;;;;;5046968;28;20037;-82
2021/04/23 05:11:19;;;;;;;22.35;6.05;;;1.00;91.50;;;;;;5025370;28;20028;-83
2021/04/23 05:13:45;;;;;;;27.50;6.47;;;1.00;91.50;;;;;;5041090;28;20672;-84
2021/04/23 05:16:11;;;;;;;20.27;5.53;;;1.20;91.60;;;;;;5006890;28;20036;-83
2021/04/23 05:18:37;;;;;;;26.08;6.53;;;1.20;91.70;;;;;;5025829;28;20119;-83
2021/04/23 05:21:03;;;;;;;19.40;6.15;;;1.40;91.70;;;;;;5045995;28;20123;-84
2021/04/23 05:23:29;;;;;;;20.58;6.53;;;1.40;91.70;;;;;;5032402;28;20125;-82
2021/04/23 05:25:55;;;;;;;27.55;5.85;;;1.50;91.70;;;;;;5053491;28;21137;-83
2021/04/23 05:28:21;;;;;;;20.90;5.95;;;1.60;91.70;;;;;;5027208;28;20680;-83
2021/04/23 05:30:46;;;;;;;20.08;6.28;;;1.60;91.60;;;;;;5030710;28;20029;-82
2021/04/23 05:33:12;;;;;;;25.63;6.22;;;1.70;91.50;;;;;;5047487;28;20060;-84
2021/04/23 05:35:40;;;;;;;18.65;5.60;;;1.80;91.90;;;;;;5032365;28;20032;-81
2021/04/23 05:38:07;;;;;;;20.08;5.43;;;1.80;91.50;;;;;;5051033;28;20515;-81
2021/04/23 05:40:39;;;;;;;18.60;5.80;;;1.90;91.50;;;;;;5048918;28;20055;-81
2021/04/23 05:43:06;;;;;;;26.30;6.43;;;2.00;91.50;;;;;;5038390;28;20318;-80
2021/04/23 05:45:33;;;;;;;18.02;5.50;;;2.10;91.60;;;;;;5038424;28;20580;-80
2021/04/23 05:47:59;;;;;;;20.40;4.93;;;2.20;91.60;;;;;;5054360;28;20040;-80
2021/04/23 05:50:26;;;;;;;24.50;6.13;;;2.30;91.50;;;;;;5042270;28;20109;-81
2021/04/23 05:52:52;;;;;;;21.70;5.47;;;2.40;91.50;;;;;;5027376;28;20431;-81
2021/04/23 05:55:20;;;;;;;19.50;5.53;;;2.40;91.60;;;;;;5029500;28;20126;-81
2021/04/23 05:57:47;;;;;;;20.63;5.43;;;2.50;91.60;;;;;;5050287;28;20032;-81
2021/04/23 06:00:18;;;;;;;16.58;5.00;;;2.60;91.50;;;;;;5048267;28;20036;-81
2021/04/23 06:02:44;;;;;;;23.60;5.60;;;2.80;91.60;;;;;;5028074;28;20036;-81
2021/04/23 06:05:10;;;;;;;22.70;5.88;;;2.90;91.50;;;;;;5064709;28;20487;-81
2021/04/23 06:07:36;;;;;;;17.33;5.28;;;3.10;91.60;;;;;;5024118;28;20059;-81
2021/04/23 06:10:06;;;;;;;22.13;4.85;;;3.30;91.60;;;;;;5049477;28;20040;-81
2021/04/23 06:12:32;;;;;;;20.58;5.03;;;3.50;91.50;;;;;;5040992;28;20033;-81
2021/04/23 06:14:58;;;;;;;16.75;5.05;;;3.70;91.50;;;;;;5035183;28;20041;-81
2021/04/23 06:17:24;;;;;;;19.35;4.60;;;3.90;91.40;;;;;;5051902;28;20131;-81
2021/04/23 06:19:50;;;;;;;19.90;5.70;;;4.10;91.60;;;;;;5054189;28;21122;-81
2021/04/23 06:22:16;;;;;;;18.40;4.55;;;4.30;91.30;;;;;;5038679;28;20399;-81
2021/04/23 06:24:42;;;;;;;17.05;5.15;;;4.50;91.20;;;;;;5024258;28;20573;-81
2021/04/23 06:27:08;;;;;;;28.15;5.18;;;4.60;91.00;;;;;;5014652;28;20047;-80
2021/04/23 06:29:34;;;;;;;19.25;4.72;;;4.80;90.90;;;;;;5034443;28;20169;-81
2021/04/23 06:32:01;;;;;;;26.25;5.30;;;4.90;90.80;;;;;;5018602;28;20167;-81
2021/04/23 06:34:27;;;;;;;14.75;4.30;;;5.10;90.80;;;;;;5024595;28;20032;-81
2021/04/23 06:36:52;;;;;;;16.27;6.07;;;5.20;90.60;;;;;;5027890;28;20029;-81
2021/04/23 06:39:19;;;;;;;19.35;4.60;;;5.30;90.40;;;;;;5024748;28;20445;-82
2021/04/23 06:41:46;;;;;;;24.75;5.30;;;5.50;90.40;;;;;;5018644;28;20131;-81
2021/04/23 06:44:12;;;;;;;13.77;4.35;;;5.60;90.30;;;;;;5047226;28;20400;-82
2021/04/23 06:46:38;;;;;;;18.48;4.75;;;5.70;90.20;;;;;;5018901;28;20120;-82
2021/04/23 06:49:04;;;;;;;17.52;4.90;;;5.90;90.10;;;;;;5030297;28;20120;-82
2021/04/23 06:51:31;;;;;;;16.05;4.72;;;6.00;89.80;;;;;;5043279;28;20044;-81
2021/04/23 06:53:56;;;;;;;21.23;4.90;;;6.20;89.50;;;;;;5044316;28;20428;-82
2021/04/23 06:56:22;;;;;;;17.40;5.10;;;6.30;89.40;;;;;;5062378;28;20032;-82
2021/04/23 06:58:48;;;;;;;14.65;5.13;;;6.40;89.10;;;;;;5062622;28;20033;-83
2021/04/23 07:01:16;;;;;;;10.60;5.10;;;6.60;88.60;;;;;;5049427;28;20054;-83
2021/04/23 07:03:45;;;;;;;15.10;4.72;;;6.70;88.20;;;;;;5030487;28;20059;-82
2021/04/23 07:06:11;;;;;;;11.93;4.55;;;6.80;87.70;;;;;;5040239;28;20101;-82
2021/04/23 07:08:38;;;;;;;13.88;4.97;;;6.80;86.90;;;;;;5018753;28;20603;-81
2021/04/23 07:11:04;;;;;;;20.40;5.80;;;6.90;86.50;;;;;;5020801;28;20051;-82
2021/04/23 07:13:30;;;;;;;19.13;5.47;;;6.90;86.30;;;;;;5031492;28;20478;-81
2021/04/23 07:15:57;;;;;;;25.30;5.95;;;7.00;86.40;;;;;;5048140;28;20052;-82
2021/04/23 07:18:22;;;;;;;16.80;5.45;;;7.10;85.80;;;;;;5030029;28;20037;-81
2021/04/23 07:20:52;;;;;;;22.13;5.18;;;7.30;85.70;;;;;;5046649;28;20136;-81
2021/04/23 07:23:17;;;;;;;16.92;5.15;;;7.30;85.70;;;;;;5029372;28;20033;-81
2021/04/23 07:25:43;;;;;;;14.32;5.20;;;7.40;84.80;;;;;;5019395;28;20102;-83
2021/04/23 07:28:09;;;;;;;19.35;5.93;;;7.50;84.80;;;;;;5029234;28;20049;-82
2021/04/23 07:30:37;;;;;;;12.82;5.55;;;7.60;84.60;;;;;;5032170;28;20722;-81
2021/04/23 07:33:04;;;;;;;11.75;5.07;;;7.60;84.10;;;;;;5049864;28;20032;-81
2021/04/23 07:35:30;;;;;;;17.50;5.88;;;7.70;84.10;;;;;;5051189;28;20037;-81
2021/04/23 07:37:57;;;;;;;18.15;5.80;;;7.80;83.50;;;;;;5037479;28;20532;-81
2021/04/23 07:40:24;;;;;;;21.60;5.93;;;7.80;83.20;;;;;;5017093;28;20063;-82
2021/04/23 07:42:50;;;;;;;16.65;5.60;;;7.90;82.90;;;;;;5043694;28;20139;-81
2021/04/23 07:45:17;;;;;;;19.95;6.28;;;7.90;82.40;;;;;;5016804;28;20032;-81
2021/04/23 07:47:43;;;;;;;20.55;5.70;;;8.00;81.50;;;;;;5013962;28;20343;-81
2021/04/23 07:50:11;;;;;;;16.83;5.63;;;8.10;81.70;;;;;;5036793;28;20040;-81
2021/04/23 07:52:37;;;;;;;13.27;5.45;;;8.30;81.10;;;;;;5031284;28;20031;-81
2021/04/23 07:55:04;;;;;;;11.10;4.93;;;8.40;80.50;;;;;;5046784;28;20032;-81
2021/04/23 07:57:31;;;;;;;20.05;6.38;;;8.60;80.40;;;;;;5050036;28;20089;-82
2021/04/23 07:59:57;;;;;;;14.45;5.47;;;8.80;79.60;;;;;;5050334;28;20037;-81
2021/04/23 08:02:23;;;;;;;14.15;5.03;;;8.80;78.50;;;;;;5009776;28;20222;-82
2021/04/23 08:04:49;;;;;;;14.38;5.55;;;8.90;78.90;;;;;;5021144;28;20056;-82
2021/04/23 08:07:16;;;;;;;13.60;5.45;;;9.00;78.40;;;;;;5024976;28;20063;-82
2021/04/23 08:09:41;;;;;;;13.07;5.45;;;9.10;77.60;;;;;;5035686;28;20046;-85
2021/04/23 08:12:08;;;;;;;13.10;5.53;;;9.30;77.10;;;;;;5051791;28;20032;-84
2021/04/23 08:14:34;;;;;;;19.05;6.03;;;9.40;76.10;;;;;;5021883;28;20567;-86
2021/04/23 08:17:01;;;;;;;14.55;5.30;;;9.40;75.90;;;;;;5028527;28;20044;-85
2021/04/23 08:19:27;;;;;;;13.27;4.90;;;9.20;75.40;;;;;;5043690;28;20806;-83
2021/04/23 08:21:53;;;;;;;15.70;5.68;;;9.20;74.60;;;;;;5032173;28;20036;-83
2021/04/23 08:24:19;;;;;;;12.65;5.78;;;9.00;74.40;;;;;;5031647;28;20549;-85
2021/04/23 08:26:45;;;;;;;15.25;5.45;;;9.10;74.30;;;;;;5032867;28;20036;-83
2021/04/23 08:29:11;;;;;;;10.55;5.10;;;9.30;73.10;;;;;;5025140;28;20067;-83
2021/04/23 08:31:42;;;;;;;12.82;5.68;;;9.40;71.60;;;;;;5032207;28;20104;-86
2021/04/23 08:34:08;;;;;;;12.07;5.15;;;9.50;71.20;;;;;;5045449;28;20029;-83
2021/04/23 08:36:34;;;;;;;18.63;6.25;;;9.50;70.40;;;;;;5014473;28;20029;-83
2021/04/23 08:39:01;;;;;;;12.07;5.82;;;9.60;71.30;;;;;;5018326;28;20397;-82
2021/04/23 08:41:27;;;;;;;10.75;5.30;;;9.70;70.10;;;;;;5047335;28;20033;-83
2021/04/23 08:43:53;;;;;;;14.25;5.18;;;9.70;69.30;;;;;;5034187;28;20544;-82
2021/04/23 08:46:19;;;;;;;11.20;4.72;;;9.60;69.50;;;;;;5047392;28;20059;-83
2021/04/23 08:48:47;;;;;;;12.32;5.20;;;9.60;69.50;;;;;;5051348;28;20452;-85
2021/04/23 08:51:17;;;;;;;12.77;5.43;;;9.60;69.50;;;;;;5047100;28;20068;-85
2021/04/23 08:53:45;;;;;;;9.48;4.68;;;9.60;69.50;;;;;;5030813;28;20032;-85
2021/04/23 08:56:11;;;;;;;13.60;5.28;;;9.70;69.40;;;;;;5035285;28;20556;-84
2021/04/23 08:58:37;;;;;;;10.40;5.05;;;9.80;69.50;;;;;;4996845;28;20048;-86
2021/04/23 09:01:03;;;;;;;10.80;5.05;;;10.00;69.00;;;;;;5045732;28;20367;-86
2021/04/23 09:03:29;;;;;;;13.52;5.70;;;10.10;68.00;;;;;;5017337;28;20549;-85
2021/04/23 09:06:21;;;;;;;13.68;5.40;;;10.10;68.50;;;;;;5027746;28;20052;-85
2021/04/23 09:08:53;;;;;;;13.38;5.30;;;10.10;67.40;;;;;;5050782;28;20047;-84
2021/04/23 09:11:43;;;;;;;13.82;5.68;;;10.00;67.70;;;;;;5060171;28;20034;-85
2021/04/23 09:14:11;;;;;;;14.73;5.47;;;10.00;67.50;;;;;;5045254;28;20059;-84
2021/04/23 09:16:59;;;;;;;12.55;5.35;;;10.00;67.90;;;;;;5049098;28;20196;-84
2021/04/23 09:19:31;;;;;;;12.88;5.55;;;9.90;66.90;;;;;;5040669;28;20870;-82
2021/04/23 09:22:07;;;;;;;9.90;4.60;;;10.10;67.70;;;;;;5029737;28;20523;-84
2021/04/23 09:24:35;;;;;;;15.88;5.53;;;10.40;67.10;;;;;;5050149;28;20041;-83
2021/04/23 09:27:10;;;;;;;12.00;5.10;;;10.60;65.40;;;;;;5045322;28;20039;-84
2021/04/23 09:29:38;;;;;;;10.48;5.30;;;10.50;64.80;;;;;;5047784;28;20037;-86
2021/04/23 09:32:17;;;;;;;14.43;5.63;;;10.50;65.40;;;;;;5047556;28;20033;-84
2021/04/23 09:34:49;;;;;;;10.63;5.80;;;10.50;65.20;;;;;;5050667;28;20115;-85
2021/04/23 09:37:15;;;;;;;10.95;5.40;;;10.50;64.90;;;;;;5047862;28;20325;-86
2021/04/23 09:39:41;;;;;;;11.35;5.05;;;10.60;64.90;;;;;;5021180;28;20036;-84
2021/04/23 09:42:10;;;;;;;9.88;4.85;;;10.60;64.20;;;;;;5046112;28;20035;-84
2021/04/23 09:44:51;;;;;;;12.32;5.07;;;10.80;63.70;;;;;;5054594;28;20116;-83
2021/04/23 09:47:19;;;;;;;12.27;4.80;;;11.10;62.70;;;;;;5056851;28;20054;-84
2021/04/23 09:49:53;;;;;;;10.23;4.78;;;11.40;62.00;;;;;;5027221;28;20502;-81
2021/04/23 09:52:20;;;;;;;9.68;4.80;;;11.60;60.90;;;;;;5048951;28;20132;-84
2021/04/23 09:54:55;;;;;;;13.13;5.72;;;11.60;60.70;;;;;;5061371;28;20067;-81
2021/04/23 09:57:27;;;;;;;12.00;5.10;;;11.40;60.40;;;;;;5064021;28;20517;-83
2021/04/23 09:59:59;;;;;;;9.20;4.90;;;11.40;60.60;;;;;;5048169;28;20033;-85
2021/04/23 10:02:29;;;;;;;12.07;4.60;;;11.20;60.30;;;;;;5066209;28;20041;-85
2021/04/23 10:04:56;;;;;;;7.35;4.05;;;11.10;59.00;;;;;;5051619;28;20063;-84
2021/04/23 10:07:26;;;;;;;12.43;4.30;;;10.90;59.30;;;;;;5014572;28;20032;-85
2021/04/23 10:09:55;;;;;;;7.88;4.40;;;10.80;59.60;;;;;;5016296;28;20040;-85
2021/04/23 10:12:29;;;;;;;12.38;4.68;;;10.90;59.70;;;;;;5035762;28;20040;-83
2021/04/23 10:15:04;;;;;;;12.48;4.70;;;11.10;58.60;;;;;;5044989;28;20036;-84
2021/04/23 10:17:30;;;;;;;11.07;4.38;;;11.20;57.90;;;;;;5028795;28;20041;-87
2021/04/23 10:19:58;;;;;;;11.52;4.72;;;11.40;57.70;;;;;;5028566;28;20445;-82
2021/04/23 10:22:24;;;;;;;6.97;4.00;;;11.60;57.10;;;;;;5017694;28;20040;-83
2021/04/23 10:24:52;;;;;;;10.43;4.22;;;11.60;55.10;;;;;;5026347;28;20060;-84
2021/04/23 10:27:20;;;;;;;7.88;4.25;;;11.50;55.40;;;;;;5024975;28;20590;-85
2021/04/23 10:29:52;;;;;;;7.05;4.15;;;11.50;55.30;;;;;;5029119;28;20045;-85
2021/04/23 10:32:19;;;;;;;10.63;4.20;;;11.30;55.90;;;;;;5031799;28;20102;-82
2021/04/23 10:34:45;;;;;;;9.00;4.10;;;11.20;56.30;;;;;;5042597;28;20042;-84
2021/04/23 10:37:12;;;;;;;8.90;4.18;;;11.10;55.30;;;;;;5024794;28;20032;-84
2021/04/23 10:39:41;;;;;;;8.68;4.03;;;11.20;55.70;;;;;;5054205;28;20040;-85
2021/04/23 10:42:42;;;;;;;7.38;4.00;;;11.40;55.60;;;;;;5065796;28;20036;-84
2021/04/23 10:45:40;;;;;;;7.70;4.10;;;11.80;54.20;;;;;;5067722;28;20032;-82
2021/04/23 10:48:11;;;;;;;7.22;4.32;;;12.10;54.30;;;;;;5047543;28;20078;-85
2021/04/23 10:50:45;;;;;;;11.18;4.30;;;12.00;53.80;;;;;;5067827;28;20063;-82
2021/04/23 10:53:16;;;;;;;7.78;4.32;;;12.00;54.40;;;;;;5065069;28;22386;-81
2021/04/23 10:56:03;;;;;;;7.63;4.00;;;11.90;54.20;;;;;;5044103;28;20458;-82
2021/04/23 10:58:29;;;;;;;12.02;4.47;;;11.80;54.00;;;;;;5049272;28;20043;-83
2021/04/23 11:01:14;;;;;;;10.48;3.95;;;11.90;54.40;;;;;;5056267;28;20852;-81
2021/04/23 11:03:44;;;;;;;10.60;4.45;;;12.10;53.40;;;;;;5038987;28;20073;-82
2021/04/23 11:06:12;;;;;;;12.18;4.90;;;12.40;54.00;;;;;;5040314;28;20044;-83
2021/04/23 11:08:59;;;;;;;12.38;5.00;;;12.60;54.40;;;;;;5050996;28;20037;-84
2021/04/23 11:11:27;;;;;;;7.72;4.15;;;12.80;54.10;;;;;;5044033;28;20105;-83
2021/04/23 11:13:54;;;;;;;7.88;3.72;;;12.80;53.60;;;;;;5049080;28;20135;-84
2021/04/23 11:16:20;;;;;;;13.02;4.70;;;12.70;52.60;;;;;;5019695;28;20051;-83
2021/04/23 11:18:47;;;;;;;8.15;4.40;;;12.70;52.60;;;;;;5038631;28;20036;-84
2021/04/23 11:21:34;;;;;;;7.40;3.78;;;12.70;52.50;;;;;;5053816;28;20404;-84
2021/04/23 11:24:17;;;;;;;11.93;4.28;;;12.80;52.20;;;;;;5017139;28;20127;-84
2021/04/23 11:26:55;;;;;;;6.38;3.92;;;13.00;52.00;;;;;;5042122;28;20085;-83
2021/04/23 11:29:22;;;;;;;11.30;4.55;;;13.00;51.10;;;;;;5061327;28;20397;-81
2021/04/23 11:32:11;;;;;;;8.98;4.70;;;12.80;50.70;;;;;;5049119;28;20036;-81
2021/04/23 11:35:01;;;;;;;10.23;4.50;;;12.70;50.90;;;;;;5052365;28;20032;-83
2021/04/23 11:37:46;;;;;;;8.32;4.70;;;12.60;51.70;;;;;;5065590;28;20032;-84
2021/04/23 11:40:22;;;;;;;11.13;4.40;;;12.80;52.20;;;;;;5038541;28;20398;-83
2021/04/23 11:42:50;;;;;;;13.20;4.85;;;13.00;52.60;;;;;;5069091;28;20615;-83
2021/04/23 11:45:25;;;;;;;11.70;4.43;;;13.40;52.00;;;;;;5065337;28;20040;-83
2021/04/23 11:47:52;;;;;;;9.30;4.30;;;13.50;50.80;;;;;;5052277;28;20136;-84
2021/04/23 11:50:18;;;;;;;11.73;4.45;;;13.60;49.90;;;;;;5033667;28;20044;-83
2021/04/23 11:52:46;;;;;;;11.65;4.65;;;13.50;48.70;;;;;;5035383;28;20554;-82
2021/04/23 11:55:20;;;;;;;11.05;5.07;;;13.40;49.10;;;;;;5033858;28;20410;-82
2021/04/23 11:57:47;;;;;;;11.35;4.10;;;13.50;49.20;;;;;;5063147;28;20046;-82
2021/04/23 12:00:23;;;;;;;11.70;4.05;;;13.60;49.00;;;;;;5050506;28;20029;-82
2021/04/23 12:03:06;;;;;;;12.52;4.22;;;13.50;48.50;;;;;;5045787;28;20116;-82
2021/04/23 12:05:34;;;;;;;;;;;13.50;48.10;;;;;;5070758;28;20036;-82
2021/04/23 12:08:07;;;;;;;5.38;3.70;;;13.40;48.00;;;;;;5072229;28;19995;-83
2021/04/23 12:10:35;;;;;;;9.27;4.30;;;13.50;48.80;;;;;;5052213;28;20037;-81
2021/04/23 12:13:05;;;;;;;11.25;4.18;;;13.70;48.10;;;;;;5030164;28;20479;-82
2021/04/23 12:15:34;;;;;;;9.40;3.97;;;13.90;47.80;;;;;;5058447;28;20420;-82
2021/04/23 12:18:02;;;;;;;9.45;4.55;;;13.80;47.00;;;;;;5058662;28;20215;-82
2021/04/23 12:20:36;;;;;;;11.30;4.18;;;13.70;47.50;;;;;;5060737;28;20043;-82
2021/04/23 12:23:04;;;;;;;7.97;4.38;;;13.60;47.60;;;;;;5043121;28;20024;-82
2021/04/23 12:25:39;;;;;;;11.88;4.88;;;13.70;48.20;;;;;;5061735;28;20578;-82
2021/04/23 12:28:22;;;;;;;8.95;4.50;;;13.80;46.70;;;;;;5065823;28;20116;-81
2021/04/23 12:31:02;;;;;;;10.30;4.78;;;13.80;47.50;;;;;;5067362;28;20487;-82
2021/04/23 12:33:36;;;;;;;11.75;4.22;;;13.80;48.40;;;;;;5051056;28;20463;-82
2021/04/23 12:36:26;;;;;;;10.95;4.35;;;13.80;48.30;;;;;;5051515;28;20043;-82
2021/04/23 12:39:13;;;;;;;6.82;4.07;;;13.90;48.10;;;;;;5057492;28;20159;-80
2021/04/23 12:41:45;;;;;;;10.75;4.18;;;13.90;46.40;;;;;;5031702;28;21679;-80
2021/04/23 12:44:20;;;;;;;10.77;3.93;;;13.90;47.00;;;;;;5036363;28;20037;-80
2021/04/23 12:46:52;;;;;;;11.27;4.10;;;13.80;46.90;;;;;;5056166;28;20120;-81
2021/04/23 12:49:38;;;;;;;10.83;4.37;;;13.90;46.30;;;;;;5045842;28;20482;-79
2021/04/23 12:52:15;;;;;;;8.10;3.95;;;13.90;46.00;;;;;;5051995;28;20481;-79
2021/04/23 12:54:42;;;;;;;8.38;3.85;;;14.00;46.10;;;;;;5047487;28;20720;-81